Time;durP1;ratioP1;P1;durP2;ratioP2;P2;SDS_P1;SDS_P2;PMS_P1;PMS_P2;Temp;Humidity;BMP_temperature;BMP_pressure;BME280_temperature;BME280_humidity;BME280_pressure;Samples;Min_cycle;Max_cycle;Signal;HPM_P1;HPM_P2
2022/12/23 00:02:24;;;;;;;72.63;12.52;;;;;;;9.00;100.00;100348.09;5067403;28;20025;-36
2022/12/23 00:04:50;;;;;;;62.90;12.63;;;;;;;9.02;100.00;100351.41;5049696;28;20028;-39
2022/12/23 00:07:15;;;;;;;76.82;13.38;;;;;;;9.01;100.00;100349.75;5049898;28;20028;-39
2022/12/23 00:09:40;;;;;;;58.05;13.30;;;;;;;8.99;100.00;100353.63;5051568;28;20053;-39
2022/12/23 00:15:05;;;;;;;53.80;13.30;;;;;;;8.95;100.00;100350.50;5067581;28;20139;-37
2022/12/23 00:17:31;;;;;;;63.75;12.70;;;;;;;8.96;100.00;100346.78;5068763;28;20111;-35
2022/12/23 00:19:57;;;;;;;58.63;14.23;;;;;;;8.97;100.00;100355.66;5060214;28;20480;-35
2022/12/23 00:23:03;;;;;;;70.75;15.35;;;;;;;8.97;100.00;100353.81;5069384;28;20031;-35
2022/12/23 00:25:08;;;;;;;53.15;14.68;;;;;;;8.95;100.00;100361.22;5050035;28;20045;-35
2022/12/23 00:27:33;;;;;;;61.25;16.25;;;;;;;8.98;100.00;100360.84;5057213;28;20049;-36
2022/12/23 00:29:58;;;;;;;64.97;16.95;;;;;;;8.96;100.00;100362.88;5060541;28;20075;-35
2022/12/23 00:32:24;;;;;;;66.68;18.08;;;;;;;8.98;100.00;100365.41;5054114;28;20032;-35
2022/12/23 00:34:49;;;;;;;63.17;18.33;;;;;;;8.94;100.00;100372.97;5064760;28;20228;-35
2022/12/23 00:37:14;;;;;;;68.70;19.63;;;;;;;8.94;100.00;100375.66;5069529;28;20414;-37
2022/12/23 00:45:14;;;;;;;72.70;18.20;;;;;;;8.95;100.00;100371.97;5069703;28;20051;-36
2022/12/23 00:50:24;;;;;;;61.65;16.42;;;;;;;8.94;100.00;100381.00;5060279;28;20134;-35
2022/12/23 00:52:49;;;;;;;64.40;15.73;;;;;;;8.93;100.00;100375.84;5058506;28;20495;-36
2022/12/23 00:55:15;;;;;;;53.33;14.02;;;;;;;8.92;100.00;100377.66;5053578;28;20029;-35
2022/12/23 00:57:40;;;;;;;71.78;17.88;;;;;;;8.90;100.00;100382.41;5051776;28;20094;-36
2022/12/23 01:00:06;;;;;;;39.65;12.70;;;;;;;8.88;100.00;100387.13;5054505;28;20068;-35
2022/12/23 01:07:59;;;;;;;30.63;10.18;;;;;;;8.84;100.00;100393.84;5071494;28;20043;-37
2022/12/23 01:10:24;;;;;;;28.88;9.63;;;;;;;8.85;100.00;100392.03;5070972;28;20025;-35
2022/12/23 01:12:50;;;;;;;24.38;9.45;;;;;;;8.80;100.00;100381.84;5053043;28;20064;-35
2022/12/23 01:15:15;;;;;;;23.48;7.80;;;;;;;8.79;100.00;100393.56;5051976;28;20102;-35
2022/12/23 01:17:41;;;;;;;19.20;6.93;;;;;;;8.80;100.00;100392.56;5060802;28;20025;-37
2022/12/23 01:20:07;;;;;;;17.88;7.60;;;;;;;8.77;100.00;100390.25;5059898;28;20128;-37
2022/12/23 01:22:32;;;;;;;19.80;7.70;;;;;;;8.76;100.00;100391.25;5054939;28;20025;-36
2022/12/23 01:24:57;;;;;;;22.98;8.45;;;;;;;8.74;100.00;100394.13;5068633;28;20511;-37
2022/12/23 01:27:23;;;;;;;22.33;9.88;;;;;;;8.73;100.00;100402.34;5072388;28;20377;-37
2022/12/23 01:29:48;;;;;;;24.42;11.15;;;;;;;8.71;100.00;100412.41;5062534;28;20098;-37
2022/12/23 01:32:13;;;;;;;29.25;11.55;;;;;;;8.70;100.00;100416.94;5065925;28;20033;-36
2022/12/23 01:34:39;;;;;;;26.08;11.27;;;;;;;8.68;100.00;100427.03;5070483;28;20034;-35
2022/12/23 01:37:04;;;;;;;34.42;13.30;;;;;;;8.68;100.00;100428.88;5072633;28;20064;-37
2022/12/23 01:39:29;;;;;;;25.55;12.93;;;;;;;8.67;100.00;100432.59;5063736;28;20419;-35
2022/12/23 01:44:53;;;;;;;39.53;16.20;;;;;;;8.69;100.00;100435.91;5051328;28;20115;-35
2022/12/23 01:47:32;;;;;;;36.20;15.43;;;;;;;8.69;100.00;100449.31;5052219;28;20055;-38
2022/12/23 01:50:15;;;;;;;39.00;17.67;;;;;;;8.68;100.00;100444.97;5058701;28;20029;-37
2022/12/23 01:52:47;;;;;;;37.30;17.33;;;;;;;8.66;100.00;100437.13;5055020;28;20495;-36
2022/12/23 01:55:16;;;;;;;46.90;19.42;;;;;;;8.66;100.00;100449.69;5057332;28;20024;-37
2022/12/23 01:57:42;;;;;;;38.15;16.90;;;;;;;8.68;100.00;100450.34;5070759;28;20120;-35
2022/12/23 02:05:36;;;;;;;51.67;19.65;;;;;;;8.64;100.00;100470.50;5050959;28;20048;-37
2022/12/23 02:11:10;;;;;;;49.95;20.00;;;;;;;8.66;100.00;100472.00;5067757;28;20448;-35
2022/12/23 02:16:15;;;;;;;50.60;18.92;;;;;;;8.68;100.00;100479.84;5051817;28;20033;-37
2022/12/23 02:16:37;;;;;;;49.42;19.20;;;;;;;8.66;100.00;100473.81;5064785;28;20110;-37
2022/12/23 02:19:05;;;;;;;39.58;17.52;;;;;;;8.66;100.00;100481.88;5066168;28;20033;-35
2022/12/23 02:21:59;;;;;;;46.45;18.02;;;;;;;8.69;100.00;100484.19;5063974;28;20082;-35
2022/12/23 02:24:47;;;;;;;37.17;15.63;;;;;;;8.68;100.00;100488.72;5070224;28;20060;-35
2022/12/23 02:27:26;;;;;;;41.95;16.67;;;;;;;8.70;100.00;100491.25;5051756;28;20408;-37
2022/12/23 02:30:24;;;;;;;44.03;17.83;;;;;;;8.70;100.00;100502.81;5060376;28;20467;-40
2022/12/23 02:32:58;;;;;;;55.25;17.17;;;;;;;8.69;100.00;100505.66;5069766;28;20085;-37
2022/12/23 02:35:44;;;;;;;44.50;18.20;;;;;;;8.70;100.00;100510.03;5064380;28;20062;-38
2022/12/23 02:38:29;;;;;;;41.50;16.88;;;;;;;8.71;100.00;100517.06;5050559;28;20042;-36
2022/12/23 02:41:06;;;;;;;45.20;17.38;;;;;;;8.71;100.00;100517.06;5048653;28;20024;-37
2022/12/23 02:43:49;;;;;;;49.88;17.35;;;;;;;8.72;100.00;100514.19;5071795;28;20391;-38
2022/12/23 02:46:31;;;;;;;53.20;18.30;;;;;;;8.72;100.00;100518.75;5057552;28;20025;-38
2022/12/23 02:49:07;;;;;;;47.75;17.90;;;;;;;8.71;100.00;100507.16;5052534;28;20047;-38
2022/12/23 02:51:35;;;;;;;38.25;15.30;;;;;;;8.75;100.00;100513.00;5062495;28;20029;-37
2022/12/23 02:54:03;;;;;;;26.95;11.30;;;;;;;8.71;100.00;100507.16;5070837;28;20465;-38
2022/12/23 02:56:30;;;;;;;26.98;12.23;;;;;;;8.70;100.00;100507.34;5053838;28;20467;-37
2022/12/23 02:59:13;;;;;;;27.52;12.82;;;;;;;8.67;100.00;100505.03;5054903;28;20032;-36
2022/12/23 03:01:40;;;;;;;31.67;13.20;;;;;;;8.65;100.00;100499.00;5042063;28;20425;-36
2022/12/23 03:04:05;;;;;;;33.38;13.55;;;;;;;8.65;100.00;100489.09;5049630;28;20446;-36
2022/12/23 03:06:39;;;;;;;28.00;11.75;;;;;;;8.60;100.00;100498.69;5066158;28;20032;-38
2022/12/23 03:09:06;;;;;;;30.50;12.82;;;;;;;8.63;100.00;100504.53;5068968;28;20054;-35
2022/12/23 03:11:52;;;;;;;32.08;14.02;;;;;;;8.61;100.00;100503.03;5065285;28;20028;-38
2022/12/23 03:14:53;;;;;;;27.25;13.40;;;;;;;8.58;100.00;100504.22;5063838;28;20148;-38
2022/12/23 03:17:42;;;;;;;31.63;13.23;;;;;;;8.62;100.00;100505.53;5067766;28;20036;-37
2022/12/23 03:20:25;;;;;;;35.95;14.23;;;;;;;8.59;100.00;100508.59;5053280;28;20391;-36
2022/12/23 03:23:02;;;;;;;31.85;13.90;;;;;;;8.58;100.00;100520.31;5049774;28;20048;-35
2022/12/23 03:25:53;;;;;;;28.52;13.13;;;;;;;8.55;100.00;100512.63;5049766;28;20123;-35
2022/12/23 03:28:32;;;;;;;23.83;10.75;;;;;;;8.53;100.00;100511.97;5050302;28;20045;-36
2022/12/23 03:30:58;;;;;;;18.50;10.35;;;;;;;8.52;100.00;100510.31;5055735;28;20024;-37
2022/12/23 03:33:36;;;;;;;26.55;10.85;;;;;;;8.52;100.00;100521.84;5069103;28;20399;-35
2022/12/23 03:36:12;;;;;;;19.08;10.20;;;;;;;8.49;100.00;100516.03;5070107;28;20024;-34
2022/12/23 03:38:40;;;;;;;21.33;11.75;;;;;;;8.48;100.00;100515.19;5067813;28;20087;-35
2022/12/23 03:41:09;;;;;;;26.02;11.88;;;;;;;8.50;100.00;100501.59;5053614;28;20112;-34
2022/12/23 03:43:42;;;;;;;25.08;11.95;;;;;;;8.48;100.00;100515.19;5049286;28;20143;-36
2022/12/23 03:46:20;;;;;;;30.77;12.45;;;;;;;8.44;100.00;100508.50;5048738;28;20116;-35
2022/12/23 03:48:57;;;;;;;24.83;13.10;;;;;;;8.45;100.00;100518.22;5053572;28;20028;-37
2022/12/23 03:51:27;;;;;;;23.58;13.27;;;;;;;8.46;100.00;100513.69;5067775;28;20119;-34
2022/12/23 03:53:59;;;;;;;25.52;12.60;;;;;;;8.48;100.00;100522.41;5068846;28;20048;-36
2022/12/23 03:56:30;;;;;;;31.30;12.27;;;;;;;8.42;100.00;100531.97;5070409;28;20044;-34
2022/12/23 03:59:02;;;;;;;34.50;14.20;;;;;;;8.44;100.00;100535.31;5063162;28;20414;-35
2022/12/23 04:01:54;;;;;;;31.98;15.38;;;;;;;8.45;100.00;100542.38;5055051;28;20033;-34
2022/12/23 04:04:31;;;;;;;28.05;15.43;;;;;;;8.47;100.00;100544.84;5049184;28;20071;-36
2022/12/23 04:07:02;;;;;;;35.75;16.55;;;;;;;8.47;100.00;100545.69;5049855;28;20021;-35
2022/12/23 04:09:28;;;;;;;38.58;15.32;;;;;;;8.47;100.00;100534.13;5056776;28;20399;-36
2022/12/23 04:11:54;;;;;;;31.27;16.50;;;;;;;8.47;100.00;100537.63;5053643;28;20060;-35
2022/12/23 04:14:20;;;;;;;32.83;17.20;;;;;;;8.45;100.00;100537.00;5048990;28;20031;-36
2022/12/23 04:16:47;;;;;;;38.75;17.17;;;;;;;8.47;100.00;100544.84;5052514;28;20033;-36
2022/12/23 04:19:12;;;;;;;33.80;16.63;;;;;;;8.46;100.00;100549.38;5049701;28;20051;-38
2022/12/23 04:21:37;;;;;;;34.33;17.08;;;;;;;8.46;100.00;100538.66;5062122;28;20028;-38
2022/12/23 04:24:03;;;;;;;38.83;17.17;;;;;;;8.47;100.00;100539.50;5055348;28;20028;-36
2022/12/23 04:26:28;;;;;;;37.17;17.58;;;;;;;8.47;100.00;100540.31;5072300;28;20115;-36
2022/12/23 04:28:53;;;;;;;36.53;16.80;;;;;;;8.45;100.00;100539.69;5068631;28;20044;-38
2022/12/23 04:31:19;;;;;;;40.75;18.05;;;;;;;8.47;100.00;100534.97;5053226;28;20052;-38
2022/12/23 04:33:44;;;;;;;39.55;16.77;;;;;;;8.45;100.00;100528.97;5053506;28;20104;-36
2022/12/23 04:36:10;;;;;;;34.97;16.30;;;;;;;8.45;100.00;100536.13;5051944;28;20024;-37
2022/12/23 04:38:35;;;;;;;38.75;17.30;;;;;;;8.44;100.00;100529.94;5062646;28;20032;-36
2022/12/23 04:41:01;;;;;;;36.17;16.52;;;;;;;8.46;100.00;100525.25;5052059;28;20025;-37
2022/12/23 04:43:26;;;;;;;38.85;16.70;;;;;;;8.45;100.00;100520.91;5053875;28;20025;-36
2022/12/23 04:45:51;;;;;;;34.50;15.88;;;;;;;8.46;100.00;100525.25;5052721;28;20021;-37
2022/12/23 04:48:17;;;;;;;36.33;16.20;;;;;;;8.45;100.00;100526.28;5051805;28;20032;-36
2022/12/23 04:50:42;;;;;;;40.30;15.82;;;;;;;8.46;100.00;100530.63;5056013;28;20043;-37
2022/12/23 04:53:08;;;;;;;35.10;15.02;;;;;;;8.45;100.00;100536.13;5061311;28;20024;-38
2022/12/23 04:55:33;;;;;;;45.17;17.17;;;;;;;8.47;100.00;100529.59;5072901;28;20027;-37
2022/12/23 04:57:58;;;;;;;36.42;15.77;;;;;;;8.47;100.00;100528.75;5070399;28;20116;-36
2022/12/23 05:00:24;;;;;;;37.20;14.77;;;;;;;8.45;100.00;100520.91;5071288;28;20025;-36
2022/12/23 05:02:49;;;;;;;35.75;15.20;;;;;;;8.47;100.00;100526.91;5052934;28;20047;-36
2022/12/23 05:05:14;;;;;;;37.10;15.93;;;;;;;8.46;100.00;100527.94;5052757;28;20187;-36
2022/12/23 05:07:40;;;;;;;33.55;14.52;;;;;;;8.46;100.00;100535.16;5053681;28;20051;-36
2022/12/23 05:10:06;;;;;;;39.63;15.70;;;;;;;8.48;100.00;100535.81;5052295;28;20041;-37
2022/12/23 05:12:31;;;;;;;33.08;14.80;;;;;;;8.49;100.00;100537.47;5070834;28;20572;-35
2022/12/23 05:14:56;;;;;;;35.13;13.70;;;;;;;8.45;100.00;100545.06;5070956;28;20051;-34
2022/12/23 05:17:22;;;;;;;39.88;15.05;;;;;;;8.44;100.00;100546.03;5067519;28;20028;-35
2022/12/23 05:19:47;;;;;;;30.27;13.88;;;;;;;8.44;100.00;100548.72;5057718;28;20032;-37
2022/12/23 05:22:13;;;;;;;36.75;14.75;;;;;;;8.46;100.00;100552.06;5049486;28;20140;-37
2022/12/23 05:24:38;;;;;;;39.63;14.77;;;;;;;8.45;100.00;100558.47;5062788;28;20076;-34
2022/12/23 05:27:03;;;;;;;41.72;15.13;;;;;;;8.46;100.00;100568.16;5070975;28;21041;-35
2022/12/23 05:29:29;;;;;;;37.17;14.38;;;;;;;8.48;100.00;100571.50;5062118;28;20029;-36
2022/12/23 05:31:54;;;;;;;48.35;15.73;;;;;;;8.49;100.00;100570.50;5055839;28;20037;-37
2022/12/23 05:34:20;;;;;;;41.05;14.73;;;;;;;8.49;100.00;100565.13;5061809;28;20082;-36
2022/12/23 05:36:45;;;;;;;41.95;14.15;;;;;;;8.47;100.00;100556.41;5070670;28;20028;-39
2022/12/23 05:39:10;;;;;;;42.05;14.57;;;;;;;8.47;100.00;100555.59;5050392;28;20025;-36
2022/12/23 05:41:36;;;;;;;39.45;15.45;;;;;;;8.46;100.00;100549.38;5058567;28;20036;-36
2022/12/23 05:44:01;;;;;;;35.53;14.48;;;;;;;8.43;100.00;100554.28;5065728;28;20024;-38
2022/12/23 05:46:27;;;;;;;37.05;14.60;;;;;;;8.42;100.00;100548.06;5065843;28;20436;-38
2022/12/23 05:48:52;;;;;;;35.03;14.20;;;;;;;8.42;100.00;100547.22;5058696;28;20021;-35
2022/12/23 05:51:17;;;;;;;37.70;14.75;;;;;;;8.42;100.00;100541.88;5060052;28;20116;-38
2022/12/23 05:53:43;;;;;;;37.53;14.20;;;;;;;8.43;100.00;100532.81;5066555;28;20108;-38
2022/12/23 05:56:08;;;;;;;43.63;14.95;;;;;;;8.46;100.00;100532.47;5072045;28;20331;-38
2022/12/23 05:58:33;;;;;;;40.50;15.63;;;;;;;8.48;100.00;100515.19;5064889;28;20029;-36
2022/12/23 06:01:01;;;;;;;37.83;15.27;;;;;;;8.46;100.00;100514.53;5053219;28;20032;-37
2022/12/23 06:03:27;;;;;;;39.25;14.43;;;;;;;8.45;100.00;100504.81;5058344;28;20025;-36
2022/12/23 06:05:53;;;;;;;37.78;14.35;;;;;;;8.43;100.00;100517.56;5071956;28;20024;-36
2022/12/23 06:08:19;;;;;;;36.15;13.82;;;;;;;8.45;100.00;100507.50;5058513;28;20382;-36
2022/12/23 06:10:44;;;;;;;38.58;14.73;;;;;;;8.45;100.00;100522.72;5069228;28;20127;-35
2022/12/23 06:13:10;;;;;;;41.85;14.77;;;;;;;8.45;100.00;100520.91;5069237;28;20112;-36
2022/12/23 06:15:35;;;;;;;39.28;14.68;;;;;;;8.49;100.00;100519.53;5077439;28;20494;-36
2022/12/23 06:18:00;;;;;;;35.60;13.75;;;;;;;8.51;100.00;100520.19;5053502;28;20373;-36
2022/12/23 06:20:26;;;;;;;40.45;14.32;;;;;;;8.50;100.00;100523.88;5059085;28;20123;-38
2022/12/23 06:22:51;;;;;;;43.55;14.95;;;;;;;8.48;100.00;100536.66;5058029;28;20443;-35
2022/12/23 06:25:16;;;;;;;37.22;15.20;;;;;;;8.46;100.00;100541.34;5055919;28;20040;-35
2022/12/23 06:27:42;;;;;;;44.28;16.60;;;;;;;8.44;100.00;100546.03;5066466;28;20045;-36
2022/12/23 06:30:08;;;;;;;43.88;15.35;;;;;;;8.41;100.00;100543.72;5063721;28;20021;-38
2022/12/23 06:32:33;;;;;;;43.85;14.00;;;;;;;8.40;100.00;100543.88;5063364;28;20393;-35
2022/12/23 06:34:58;;;;;;;48.50;14.80;;;;;;;8.41;100.00;100545.56;5060352;28;20438;-35
2022/12/23 06:37:23;;;;;;;46.83;14.65;;;;;;;8.41;100.00;100556.28;5071539;28;20136;-37
2022/12/23 06:39:49;;;;;;;42.70;14.85;;;;;;;8.42;100.00;100552.59;5073055;28;20463;-37
2022/12/23 06:42:14;;;;;;;42.53;14.95;;;;;;;8.42;100.00;100537.31;5071168;28;20424;-37
2022/12/23 06:44:40;;;;;;;40.13;14.60;;;;;;;8.46;100.00;100537.84;5057404;28;20436;-36
2022/12/23 06:47:05;;;;;;;46.60;15.45;;;;;;;8.41;100.00;100535.66;5053944;28;20021;-34
2022/12/23 06:49:30;;;;;;;45.08;15.40;;;;;;;8.38;100.00;100541.34;5052289;28;20039;-33
2022/12/23 06:51:56;;;;;;;42.58;15.20;;;;;;;8.38;100.00;100541.34;5051453;28;20049;-37
2022/12/23 06:54:21;;;;;;;44.80;15.45;;;;;;;8.37;100.00;100547.72;5050904;28;20111;-35
2022/12/23 06:56:46;;;;;;;42.33;15.68;;;;;;;8.38;100.00;100545.88;5050758;28;20124;-35
2022/12/23 06:59:12;;;;;;;42.92;15.30;;;;;;;8.45;100.00;100549.56;5049875;28;20017;-35
2022/12/23 07:01:37;;;;;;;43.70;15.27;;;;;;;8.43;100.00;100554.28;5051012;28;20083;-35
2022/12/23 07:04:02;;;;;;;47.67;17.70;;;;;;;8.43;100.00;100562.31;5051273;28;20024;-35
2022/12/23 07:06:28;;;;;;;53.30;17.60;;;;;;;8.41;100.00;100569.69;5050913;28;20472;-37
2022/12/23 07:08:53;;;;;;;53.55;18.23;;;;;;;8.39;100.00;100564.50;5032996;28;20032;-36
2022/12/23 07:11:19;;;;;;;64.47;20.35;;;;;;;8.35;100.00;100560.47;5051007;28;20025;-36
2022/12/23 07:13:45;;;;;;;62.03;20.13;;;;;;;8.37;100.00;100561.13;5064844;28;20479;-37
2022/12/23 07:16:10;;;;;;;49.67;16.85;;;;;;;8.39;100.00;100553.78;5056169;28;20415;-38
2022/12/23 07:18:35;;;;;;;54.95;19.00;;;;;;;8.42;100.00;100553.41;5052075;28;20090;-37
2022/12/23 07:21:02;;;;;;;57.45;19.83;;;;;;;8.45;100.00;100552.22;5069324;28;20051;-36
2022/12/23 07:23:28;;;;;;;57.35;20.15;;;;;;;8.49;100.00;100546.34;5071732;28;20041;-36
2022/12/23 07:25:54;;;;;;;65.72;21.13;;;;;;;8.48;100.00;100544.69;5070236;28;20029;-36
2022/12/23 07:28:20;;;;;;;71.22;22.30;;;;;;;8.48;100.00;100552.75;5071128;28;20041;-35
2022/12/23 07:30:46;;;;;;;60.28;20.63;;;;;;;8.48;100.00;100546.53;5070395;28;20108;-36
2022/12/23 07:33:11;;;;;;;64.28;21.33;;;;;;;8.48;100.00;100550.06;5064902;28;20380;-36
2022/12/23 07:35:37;;;;;;;66.13;21.83;;;;;;;8.49;100.00;100550.88;5058602;28;20033;-37
2022/12/23 07:38:02;;;;;;;66.47;21.60;;;;;;;8.50;100.00;100548.00;5057495;28;20021;-37
2022/12/23 07:40:28;;;;;;;63.30;21.73;;;;;;;8.50;100.00;100536.44;5060636;28;20059;-35
2022/12/23 07:42:55;;;;;;;61.67;21.42;;;;;;;8.50;100.00;100534.59;5059996;28;20027;-38
2022/12/23 07:45:20;;;;;;;62.85;21.45;;;;;;;8.49;100.00;100535.63;5058941;28;20476;-35
2022/12/23 07:47:46;;;;;;;66.10;24.48;;;;;;;8.48;100.00;100536.66;5058624;28;20042;-35
2022/12/23 07:50:12;;;;;;;68.75;25.20;;;;;;;8.45;100.00;100539.69;5059924;28;20024;-36
2022/12/23 07:52:37;;;;;;;71.18;24.92;;;;;;;8.45;100.00;100526.28;5058745;28;20056;-36
2022/12/23 07:55:04;;;;;;;76.82;26.45;;;;;;;8.46;100.00;100527.94;5058592;28;20111;-38
2022/12/23 07:57:29;;;;;;;75.38;29.00;;;;;;;8.52;100.00;100527.22;5063425;28;20029;-38
2022/12/23 07:59:54;;;;;;;76.82;29.52;;;;;;;8.50;100.00;100528.41;5066156;28;20413;-37
2022/12/23 08:02:23;;;;;;;74.97;28.85;;;;;;;8.47;100.00;100526.91;5065625;28;20028;-36
2022/12/23 08:04:49;;;;;;;76.60;30.88;;;;;;;8.47;100.00;100518.03;5066190;28;20021;-35
2022/12/23 08:07:14;;;;;;;80.32;28.50;;;;;;;8.48;100.00;100515.19;5067296;28;20475;-34
2022/12/23 08:09:39;;;;;;;79.20;29.20;;;;;;;8.46;100.00;100511.00;5068420;28;20048;-35
2022/12/23 08:12:05;;;;;;;74.95;27.30;;;;;;;8.47;100.00;100497.41;5068247;28;20143;-37
2022/12/23 08:14:30;;;;;;;88.30;25.40;;;;;;;8.40;100.00;100488.44;5065750;28;20039;-37
2022/12/23 08:16:55;;;;;;;76.68;24.65;;;;;;;8.41;100.00;100497.28;5066736;28;20376;-36
2022/12/23 08:19:21;;;;;;;75.43;25.38;;;;;;;8.45;100.00;100488.72;5066648;28;20383;-34
2022/12/23 08:21:46;;;;;;;66.22;22.23;;;;;;;8.41;100.00;100497.28;5068420;28;20036;-36
2022/12/23 08:24:12;;;;;;;57.80;19.98;;;;;;;8.39;100.00;100500.13;5067059;28;20024;-35
2022/12/23 08:26:37;;;;;;;65.50;21.33;;;;;;;8.45;100.00;100488.72;5068166;28;20021;-34
2022/12/23 08:29:02;;;;;;;55.28;18.33;;;;;;;8.50;100.00;100490.84;5069183;28;20538;-35
2022/12/23 08:31:30;;;;;;;49.75;17.70;;;;;;;8.48;100.00;100480.31;5068808;28;20380;-36
2022/12/23 08:33:56;;;;;;;53.33;16.92;;;;;;;8.48;100.00;100480.31;5066361;28;20071;-35
2022/12/23 08:36:25;;;;;;;58.08;17.10;;;;;;;8.42;100.00;100478.34;5068887;28;20024;-35
2022/12/23 08:38:52;;;;;;;57.67;17.00;;;;;;;8.42;100.00;100462.25;5066253;28;20029;-35
2022/12/23 08:41:20;;;;;;;49.65;17.50;;;;;;;8.50;100.00;100480.97;5068867;28;20068;-37
2022/12/23 08:43:45;;;;;;;44.80;15.18;;;;;;;8.45;100.00;100475.31;5066408;28;20033;-36
2022/12/23 08:46:11;;;;;;;56.35;16.13;;;;;;;8.44;100.00;100470.94;5071030;28;20363;-37
2022/12/23 08:48:37;;;;;;;45.88;14.93;;;;;;;8.43;100.00;100471.97;5067836;28;20032;-37
2022/12/23 08:51:04;;;;;;;48.10;15.57;;;;;;;8.39;100.00;100472.47;5067749;28;20013;-36
2022/12/23 08:53:30;;;;;;;45.17;15.15;;;;;;;8.39;100.00;100478.69;5067195;28;20025;-36
2022/12/23 08:56:00;;;;;;;46.60;14.35;;;;;;;8.43;100.00;100463.09;5067172;28;20024;-34
2022/12/23 08:58:26;;;;;;;43.38;14.07;;;;;;;8.46;100.00;100465.44;5063347;28;20021;-35
2022/12/23 09:00:51;;;;;;;38.53;13.93;;;;;;;8.46;100.00;100463.56;5067280;28;20531;-35
2022/12/23 09:03:16;;;;;;;31.35;12.10;;;;;;;8.45;100.00;100456.53;5065579;28;20480;-35
2022/12/23 09:05:42;;;;;;;35.10;12.90;;;;;;;8.45;100.00;100448.50;5065035;28;20506;-35
2022/12/23 09:08:08;;;;;;;39.70;13.82;;;;;;;8.50;100.00;100451.47;5065695;28;20328;-36
2022/12/23 09:10:34;;;;;;;30.25;12.10;;;;;;;8.49;100.00;100448.97;5061990;28;20361;-38
2022/12/23 09:12:59;;;;;;;30.50;11.65;;;;;;;8.51;100.00;100450.47;5063699;28;20126;-35
2022/12/23 09:15:24;;;;;;;29.40;10.95;;;;;;;8.58;100.00;100455.94;5062380;28;20387;-35
2022/12/23 09:17:50;;;;;;;27.98;11.35;;;;;;;8.60;100.00;100453.09;5064698;28;20056;-37
2022/12/23 09:20:15;;;;;;;30.33;11.02;;;;;;;8.56;100.00;100458.81;5063552;28;20029;-36
2022/12/23 09:22:40;;;;;;;24.60;10.75;;;;;;;8.53;100.00;100453.81;5064737;28;20100;-36
2022/12/23 09:25:06;;;;;;;26.52;10.93;;;;;;;8.58;100.00;100445.19;5063547;28;20490;-37
2022/12/23 09:27:31;;;;;;;30.60;12.20;;;;;;;8.53;100.00;100429.66;5062091;28;20078;-37
2022/12/23 09:29:56;;;;;;;33.97;12.60;;;;;;;8.54;100.00;100417.91;5061219;28;20017;-37
2022/12/23 09:32:22;;;;;;;32.10;12.63;;;;;;;8.61;100.00;100411.81;5064144;28;20028;-37
2022/12/23 09:34:47;;;;;;;31.30;14.82;;;;;;;8.62;100.00;100402.78;5070100;28;20036;-39
2022/12/23 09:37:15;;;;;;;34.58;13.68;;;;;;;8.64;100.00;100400.75;5064289;28;20029;-36
2022/12/23 09:39:41;;;;;;;42.92;15.23;;;;;;;8.64;100.00;100398.06;5065646;28;20077;-38
2022/12/23 09:42:23;;;;;;;36.78;13.93;;;;;;;8.73;100.00;100394.28;5061796;28;20032;-39
2022/12/23 09:44:51;;;;;;;35.33;14.40;;;;;;;8.69;100.00;100399.19;5061285;28;20083;-38
2022/12/23 09:47:20;;;;;;;43.70;15.65;;;;;;;8.63;100.00;100388.34;5062150;28;20024;-36
2022/12/23 09:49:49;;;;;;;;;;;;;;;8.52;100.00;100387.75;5063798;28;20033;-36
2022/12/23 09:52:21;;;;;;;38.10;15.57;;;;;;;8.54;100.00;100384.91;5061576;28;20464;-36
2022/12/23 09:54:50;;;;;;;43.15;15.90;;;;;;;8.48;100.00;100380.25;5072679;28;20024;-39
2022/12/23 09:57:21;;;;;;;51.50;16.42;;;;;;;8.38;100.00;100380.47;5074084;28;20514;-36
2022/12/23 10:00:03;;;;;;;52.00;18.15;;;;;;;8.41;100.00;100390.03;5073855;28;20040;-37
2022/12/23 10:02:28;;;;;;;51.95;18.63;;;;;;;8.39;100.00;100390.19;5069884;28;20059;-36
2022/12/23 10:05:14;;;;;;;44.33;18.95;;;;;;;8.46;100.00;100387.66;5054454;28;20076;-36
2022/12/23 10:07:46;;;;;;;53.22;19.98;;;;;;;8.47;100.00;100383.94;5051943;28;20043;-35
2022/12/23 10:10:27;;;;;;;51.88;18.98;;;;;;;8.49;100.00;100385.44;5052280;28;20033;-36
2022/12/23 10:12:54;;;;;;;57.65;19.13;;;;;;;8.48;100.00;100381.09;5050877;28;20480;-37
2022/12/23 10:15:32;;;;;;;51.75;19.55;;;;;;;8.52;100.00;100377.03;5050763;28;20040;-35
2022/12/23 10:18:05;;;;;;;61.17;19.95;;;;;;;8.51;100.00;100367.31;5051919;28;20029;-38
2022/12/23 10:20:40;;;;;;;64.15;19.73;;;;;;;8.50;100.00;100379.03;5051702;28;20029;-38
2022/12/23 10:23:13;;;;;;;73.20;20.63;;;;;;;8.59;100.00;100370.97;5051923;28;20480;-35
2022/12/23 10:25:47;;;;;;;76.38;21.42;;;;;;;8.62;100.00;100373.28;5050888;28;20029;-38
2022/12/23 10:28:13;;;;;;;88.35;23.88;;;;;;;8.64;100.00;100357.84;5051857;28;20516;-36
2022/12/23 10:30:39;;;;;;;77.93;23.77;;;;;;;8.65;100.00;100359.50;5052109;28;20021;-38
2022/12/23 10:33:33;;;;;;;88.57;26.48;;;;;;;8.65;100.00;100354.13;5052048;28;20428;-36
2022/12/23 10:36:07;;;;;;;101.30;24.58;;;;;;;8.69;100.00;100350.91;5051976;28;20086;-37
2022/12/23 10:38:45;;;;;;;104.57;25.70;;;;;;;8.66;100.00;100356.66;5051836;28;20097;-35
2022/12/23 10:41:23;;;;;;;98.47;25.33;;;;;;;8.69;100.00;100347.38;5050419;28;20472;-35
2022/12/23 10:44:01;;;;;;;;;;;;;;;8.63;100.00;100340.88;5052379;28;20079;-37
2022/12/23 10:46:32;;;;;;;109.97;25.50;;;;;;;8.59;100.00;100344.13;5051727;28;19912;-37
2022/12/23 10:49:24;;;;;;;100.97;24.60;;;;;;;8.61;100.00;100345.63;5051695;28;20029;-38
2022/12/23 10:51:56;;;;;;;105.55;24.80;;;;;;;8.55;100.00;100338.28;5049895;28;20021;-37
2022/12/23 10:54:25;;;;;;;107.60;26.17;;;;;;;8.57;100.00;100333.56;5051350;28;20025;-37
2022/12/23 10:56:52;;;;;;;109.40;24.67;;;;;;;8.56;100.00;100324.69;5051737;28;20037;-37
2022/12/23 10:59:23;;;;;;;107.63;24.83;;;;;;;8.51;100.00;100326.25;5050132;28;20103;-40
2022/12/23 11:01:52;;;;;;;109.35;26.70;;;;;;;8.53;100.00;100318.84;5051313;28;20077;-41
2022/12/23 11:04:25;;;;;;;104.00;27.77;;;;;;;8.49;100.00;100314.88;5049766;28;20468;-42
2022/12/23 11:06:51;;;;;;;108.18;26.33;;;;;;;8.48;100.00;100300.63;5049749;28;20052;-42
2022/12/23 11:09:19;;;;;;;116.97;27.48;;;;;;;8.47;100.00;100293.59;5049635;28;20506;-42
2022/12/23 11:12:03;;;;;;;109.68;28.60;;;;;;;8.47;100.00;100277.50;5052587;28;20052;-42
2022/12/23 11:15:00;;;;;;;99.38;26.73;;;;;;;8.51;100.00;100272.63;5068945;28;20035;-41
2022/12/23 11:17:27;;;;;;;100.00;26.17;;;;;;;8.45;100.00;100267.97;5070347;28;20127;-40
2022/12/23 11:20:10;;;;;;;99.03;25.92;;;;;;;8.45;100.00;100258.09;5070202;28;20500;-41
2022/12/23 11:22:50;;;;;;;95.03;28.27;;;;;;;8.45;100.00;100242.00;5070639;28;20024;-42
2022/12/23 11:25:33;;;;;;;101.18;28.42;;;;;;;8.47;100.00;100237.28;5069101;28;21129;-42
2022/12/23 11:28:18;;;;;;;101.32;27.95;;;;;;;8.46;100.00;100232.09;5070423;28;20483;-42
2022/12/23 11:30:49;;;;;;;89.20;27.77;;;;;;;8.44;100.00;100229.59;5052643;28;20023;-43
2022/12/23 11:33:35;;;;;;;72.35;25.58;;;;;;;8.37;100.00;100223.25;5069699;28;20116;-42
2022/12/23 11:36:04;;;;;;;75.10;26.17;;;;;;;8.34;100.00;100216.41;5069304;28;20161;-42
2022/12/23 11:38:31;;;;;;;79.95;25.52;;;;;;;8.35;100.00;100217.28;5070401;28;20024;-43
2022/12/23 11:40:56;;;;;;;74.28;26.60;;;;;;;8.41;100.00;100213.06;5070197;28;20060;-43
2022/12/23 11:43:22;;;;;;;69.13;26.17;;;;;;;8.34;100.00;100211.06;5070314;28;20042;-43
2022/12/23 11:46:14;;;;;;;72.18;27.15;;;;;;;8.33;100.00;100200.53;5069125;28;20024;-43
2022/12/23 11:48:40;;;;;;;69.85;25.95;;;;;;;8.31;100.00;100194.50;5070337;28;20041;-43